createdAt,value
2017-09-08T00:00:09.971Z,15.8
2017-09-08T00:01:11.361Z,15.8
2017-09-08T00:02:12.777Z,15.8
2017-09-08T00:03:14.540Z,15.8
2017-09-08T00:04:15.952Z,15.8
2017-09-08T00:05:17.406Z,15.8
2017-09-08T00:06:18.806Z,15.9
2017-09-08T00:07:20.287Z,15.9
2017-09-08T00:08:21.684Z,15.9
2017-09-08T00:09:23.077Z,15.9
2017-09-08T00:10:24.506Z,15.9
2017-09-08T00:11:25.902Z,15.8
2017-09-08T00:12:27.293Z,15.9
2017-09-08T00:13:28.724Z,15.9
2017-09-08T00:14:30.119Z,15.9
2017-09-08T00:15:31.622Z,15.9
2017-09-08T00:16:33.021Z,15.9
2017-09-08T00:17:34.486Z,15.9
2017-09-08T00:18:36.272Z,15.9
2017-09-08T00:19:37.671Z,15.9
2017-09-08T00:20:39.114Z,15.9
2017-09-08T00:21:40.886Z,15.9
2017-09-08T00:22:42.278Z,15.9
2017-09-08T00:23:43.749Z,15.9
2017-09-08T00:24:45.151Z,15.9
2017-09-08T00:25:46.549Z,15.9
2017-09-08T00:26:47.972Z,15.9
2017-09-08T00:27:49.516Z,15.9
2017-09-08T00:28:50.913Z,15.9
2017-09-08T00:29:52.385Z,15.9
2017-09-08T00:30:53.786Z,15.9
2017-09-08T00:31:55.274Z,16.0
2017-09-08T00:32:56.672Z,16.0
2017-09-08T00:33:58.145Z,16.0
2017-09-08T00:34:59.545Z,16.0
2017-09-08T00:36:00.939Z,16.0
2017-09-08T00:37:02.365Z,15.9
2017-09-08T00:38:03.758Z,16.0
2017-09-08T00:39:05.160Z,16.0
2017-09-08T00:40:06.582Z,15.9
2017-09-08T00:41:07.990Z,16.0
2017-09-08T00:42:09.391Z,16.0
2017-09-08T00:43:10.812Z,16.0
2017-09-08T00:44:12.209Z,16.0
2017-09-08T00:45:13.610Z,16.0
2017-09-08T00:46:15.124Z,16.0
2017-09-08T00:47:16.478Z,16.0
2017-09-08T00:48:17.902Z,16.0
2017-09-08T00:49:19.299Z,16.0
2017-09-08T00:50:20.781Z,16.0
2017-09-08T00:51:22.176Z,16.0
2017-09-08T00:52:23.662Z,16.0
2017-09-08T00:53:25.454Z,16.0
2017-09-08T00:54:26.967Z,16.0
2017-09-08T00:55:28.373Z,16.0
2017-09-08T00:56:29.834Z,16.0
2017-09-08T00:57:31.244Z,16.0
2017-09-08T00:58:32.713Z,16.0
2017-09-08T00:59:34.110Z,16.0
2017-09-08T01:00:35.597Z,16.0
2017-09-08T01:01:36.998Z,16.0
2017-09-08T01:02:38.473Z,16.1
2017-09-08T01:03:39.867Z,16.0
2017-09-08T01:04:41.268Z,16.0
2017-09-08T01:05:42.691Z,16.0
2017-09-08T01:06:44.104Z,16.0
2017-09-08T01:07:45.498Z,16.0
2017-09-08T01:08:47.220Z,15.9
2017-09-08T01:09:48.624Z,16.0
2017-09-08T01:10:50.023Z,15.9
2017-09-08T01:11:51.467Z,15.9
2017-09-08T01:12:52.864Z,15.9
2017-09-08T01:13:54.266Z,16.0
2017-09-08T01:14:55.763Z,15.9
2017-09-08T01:15:57.169Z,15.9
2017-09-08T01:16:58.717Z,16.0
2017-09-08T01:18:00.121Z,15.9
2017-09-08T01:19:01.628Z,15.9
2017-09-08T01:20:03.026Z,15.9
2017-09-08T01:21:04.470Z,15.9
2017-09-08T01:22:05.846Z,15.9
2017-09-08T01:23:07.268Z,15.9
2017-09-08T01:24:08.673Z,15.9
2017-09-08T01:25:10.195Z,15.9
2017-09-08T01:26:11.576Z,15.9
2017-09-08T01:27:13.042Z,15.9
2017-09-08T01:28:14.449Z,15.9
2017-09-08T01:29:15.932Z,15.9
2017-09-08T01:30:17.330Z,15.9
2017-09-08T01:31:18.806Z,15.9
2017-09-08T01:32:20.206Z,15.9
2017-09-08T01:33:21.686Z,15.9
2017-09-08T01:34:23.080Z,15.8
2017-09-08T01:35:24.572Z,15.9
2017-09-08T01:36:25.976Z,15.9
2017-09-08T01:37:27.447Z,15.9
2017-09-08T01:38:28.846Z,15.8
2017-09-08T01:39:30.326Z,15.9
2017-09-08T01:40:31.735Z,15.8
2017-09-08T01:41:33.209Z,15.9
2017-09-08T01:42:34.605Z,15.8
2017-09-08T01:43:36.090Z,15.8
2017-09-08T01:44:37.487Z,15.9
2017-09-08T01:45:38.895Z,15.8
2017-09-08T01:46:40.308Z,15.9
2017-09-08T01:47:41.705Z,15.8
2017-09-08T01:48:43.100Z,15.7
2017-09-08T01:49:44.526Z,15.8
2017-09-08T01:50:45.925Z,15.8
2017-09-08T01:51:47.322Z,15.8
2017-09-08T01:52:48.760Z,15.8
2017-09-08T01:53:50.173Z,15.8
2017-09-08T01:54:51.568Z,15.8
2017-09-08T01:55:53.065Z,15.8
2017-09-08T01:56:54.473Z,15.8
2017-09-08T01:57:55.955Z,15.8
2017-09-08T01:58:57.357Z,15.8
2017-09-08T01:59:58.762Z,15.8
2017-09-08T02:01:00.267Z,15.8
2017-09-08T02:02:01.664Z,15.8
2017-09-08T02:03:03.061Z,15.8
2017-09-08T02:04:04.487Z,15.8
2017-09-08T02:05:05.885Z,15.8
2017-09-08T02:06:07.284Z,15.8
2017-09-08T02:07:08.693Z,15.8
2017-09-08T02:08:10.121Z,15.8
2017-09-08T02:09:11.520Z,15.8
2017-09-08T02:10:13.026Z,15.8
2017-09-08T02:11:14.425Z,15.8
2017-09-08T02:12:15.904Z,15.8
2017-09-08T02:13:17.311Z,15.8
2017-09-08T02:14:18.816Z,15.8
2017-09-08T02:15:20.213Z,15.8
2017-09-08T02:16:21.667Z,15.8
2017-09-08T02:17:23.062Z,15.8
2017-09-08T02:18:24.552Z,15.8
2017-09-08T02:19:25.993Z,15.8
2017-09-08T02:20:27.430Z,15.8
2017-09-08T02:21:28.828Z,15.8
2017-09-08T02:22:30.227Z,15.8
2017-09-08T02:23:31.647Z,15.8
2017-09-08T02:24:33.050Z,15.8
2017-09-08T02:25:34.445Z,15.8
2017-09-08T02:26:35.869Z,15.8
2017-09-08T02:27:37.264Z,15.8
2017-09-08T02:28:38.665Z,15.8
2017-09-08T02:29:40.085Z,15.8
2017-09-08T02:30:41.454Z,15.8
2017-09-08T02:31:42.852Z,15.8
2017-09-08T02:32:44.306Z,15.8
2017-09-08T02:33:45.705Z,15.8
2017-09-08T02:34:47.104Z,15.8
2017-09-08T02:35:48.523Z,15.8
2017-09-08T02:36:49.925Z,15.8
2017-09-08T02:37:51.330Z,15.8
2017-09-08T02:38:52.726Z,15.8
2017-09-08T02:39:54.125Z,15.8
2017-09-08T02:40:55.621Z,15.8
2017-09-08T02:41:57.025Z,15.8
2017-09-08T02:42:58.505Z,15.8
2017-09-08T02:43:59.900Z,15.8
2017-09-08T02:45:01.385Z,15.8
2017-09-08T02:46:02.782Z,15.9
2017-09-08T02:47:04.265Z,15.8
2017-09-08T02:48:05.675Z,15.8
2017-09-08T02:49:07.143Z,15.8
2017-09-08T02:50:08.543Z,15.8
2017-09-08T02:51:10.024Z,15.8
2017-09-08T02:52:11.428Z,15.8
2017-09-08T02:53:12.906Z,15.8
2017-09-08T02:54:14.304Z,15.8
2017-09-08T02:55:15.788Z,15.8
2017-09-08T02:56:17.183Z,15.9
2017-09-08T02:57:18.666Z,15.9
2017-09-08T02:58:20.065Z,15.8
2017-09-08T02:59:21.551Z,15.9
2017-09-08T03:00:22.971Z,15.9
2017-09-08T03:01:24.368Z,15.9
2017-09-08T03:02:25.868Z,15.9
2017-09-08T03:03:27.268Z,15.9
2017-09-08T03:04:28.666Z,15.9
2017-09-08T03:05:30.097Z,15.9
2017-09-08T03:06:31.491Z,15.8
2017-09-08T03:07:32.898Z,15.9
2017-09-08T03:08:34.408Z,15.9
2017-09-08T03:09:35.819Z,15.9
2017-09-08T03:10:37.223Z,15.9
2017-09-08T03:11:38.748Z,15.9
2017-09-08T03:12:40.177Z,15.9
2017-09-08T03:13:41.573Z,15.9
2017-09-08T03:14:43.052Z,15.9
2017-09-08T03:15:44.454Z,15.9
2017-09-08T03:16:45.852Z,15.9
2017-09-08T03:17:47.283Z,15.9
2017-09-08T03:18:49.070Z,15.9
2017-09-08T03:19:50.472Z,15.9
2017-09-08T03:20:51.897Z,15.9
2017-09-08T03:21:53.300Z,15.9
2017-09-08T03:22:54.777Z,15.9
2017-09-08T03:23:56.178Z,15.9
2017-09-08T03:24:57.662Z,15.9
2017-09-08T03:25:59.061Z,15.9
2017-09-08T03:27:00.468Z,15.9
2017-09-08T03:28:01.981Z,15.9
2017-09-08T03:29:03.382Z,15.9
2017-09-08T03:30:04.784Z,16.0
2017-09-08T03:31:06.309Z,15.9
2017-09-08T03:32:07.706Z,15.9
2017-09-08T03:33:09.098Z,15.9
2017-09-08T03:34:10.521Z,15.9
2017-09-08T03:35:11.925Z,16.0
2017-09-08T03:36:13.319Z,15.9
2017-09-08T03:37:14.739Z,15.9
2017-09-08T03:38:16.138Z,16.0
2017-09-08T03:39:17.539Z,15.9
2017-09-08T03:40:18.949Z,16.0
2017-09-08T03:41:20.360Z,16.0
2017-09-08T03:42:21.765Z,16.0
2017-09-08T03:43:23.277Z,16.0
2017-09-08T03:44:24.675Z,16.0
2017-09-08T03:45:26.072Z,15.9
2017-09-08T03:46:27.499Z,16.0
2017-09-08T03:47:28.893Z,15.9
2017-09-08T03:48:30.376Z,16.0
2017-09-08T03:49:31.776Z,16.0
2017-09-08T03:50:33.261Z,15.9
2017-09-08T03:51:34.660Z,16.0
2017-09-08T03:52:36.138Z,16.0
2017-09-08T03:53:37.534Z,16.0
2017-09-08T03:54:39.018Z,16.0
2017-09-08T03:55:40.416Z,16.0
2017-09-08T03:56:41.812Z,16.0
2017-09-08T03:57:43.276Z,16.0
2017-09-08T03:58:44.672Z,16.0
2017-09-08T03:59:46.070Z,16.0
2017-09-08T04:00:47.939Z,16.0
2017-09-08T04:01:49.338Z,16.0
2017-09-08T04:02:50.739Z,16.0
2017-09-08T04:03:52.189Z,16.0
2017-09-08T04:04:53.581Z,16.0
2017-09-08T04:05:54.992Z,16.0
2017-09-08T04:06:56.408Z,16.0
2017-09-08T04:07:57.811Z,16.0
2017-09-08T04:08:59.286Z,16.0
2017-09-08T04:10:00.687Z,16.0
2017-09-08T04:11:02.173Z,16.0
2017-09-08T04:12:03.566Z,16.0
2017-09-08T04:13:05.048Z,16.0
2017-09-08T04:14:06.445Z,16.0
2017-09-08T04:15:07.926Z,15.9
2017-09-08T04:16:09.327Z,16.0
2017-09-08T04:17:10.807Z,16.0
2017-09-08T04:18:12.206Z,16.0
2017-09-08T04:19:13.692Z,16.0
2017-09-08T04:20:15.103Z,16.0
2017-09-08T04:21:16.578Z,16.0
2017-09-08T04:22:17.980Z,16.0
2017-09-08T04:23:19.449Z,16.0
2017-09-08T04:24:20.850Z,16.0
2017-09-08T04:25:22.341Z,16.0
2017-09-08T04:26:23.740Z,16.0
2017-09-08T04:27:25.213Z,16.0
2017-09-08T04:28:26.650Z,16.1
2017-09-08T04:29:28.091Z,16.0
2017-09-08T04:30:29.492Z,16.0
2017-09-08T04:31:30.973Z,16.0
2017-09-08T04:32:32.368Z,15.9
2017-09-08T04:33:33.855Z,16.0
2017-09-08T04:34:35.255Z,16.0
2017-09-08T04:35:36.681Z,16.0
2017-09-08T04:36:38.082Z,16.0
2017-09-08T04:37:39.486Z,16.0
2017-09-08T04:38:40.879Z,16.0
2017-09-08T04:39:42.353Z,16.0
2017-09-08T04:40:43.758Z,15.9
2017-09-08T04:41:45.158Z,16.0
2017-09-08T04:42:46.551Z,16.0
2017-09-08T04:43:47.943Z,16.0
2017-09-08T04:44:49.351Z,16.0
2017-09-08T04:45:50.783Z,15.9
2017-09-08T04:46:52.195Z,15.9
2017-09-08T04:47:53.597Z,16.0
2017-09-08T04:48:55.003Z,15.9
2017-09-08T04:49:56.786Z,15.9
2017-09-08T04:50:58.218Z,15.9
2017-09-08T04:51:59.600Z,16.0
2017-09-08T04:53:01.003Z,15.9
2017-09-08T04:54:02.403Z,15.9
2017-09-08T05:16:46.356Z,15.9
2017-09-08T05:17:47.753Z,15.9
2017-09-08T06:10:28.035Z,16.1
2017-09-08T06:11:29.449Z,16.1
2017-09-08T06:20:05.185Z,16.0
2017-09-08T06:21:06.602Z,16.1
2017-09-08T07:39:26.843Z,16.3
2017-09-08T07:40:28.241Z,16.2
2017-09-08T07:41:49.893Z,16.3
2017-09-08T07:42:51.300Z,16.3
2017-09-08T07:44:12.962Z,16.3
2017-09-08T07:45:14.366Z,16.3
2017-09-08T07:46:36.016Z,16.3
2017-09-08T07:47:37.411Z,16.3
2017-09-08T07:48:38.810Z,16.3
2017-09-08T07:49:40.306Z,16.4
2017-09-08T07:50:41.701Z,16.5
2017-09-08T07:51:43.109Z,16.5
2017-09-08T07:52:44.618Z,16.5
2017-09-08T07:53:46.018Z,16.5
2017-09-08T07:54:47.417Z,16.5
2017-09-08T07:55:48.842Z,16.4
2017-09-08T07:56:50.241Z,16.6
2017-09-08T07:57:51.639Z,16.6
2017-09-08T07:58:53.054Z,16.6
2017-09-08T07:59:54.454Z,16.5
2017-09-08T08:00:56.277Z,16.5
2017-09-08T08:01:57.796Z,16.5
2017-09-08T08:02:59.195Z,16.5
2017-09-08T08:04:00.599Z,16.5
2017-09-08T08:05:02.108Z,16.6
2017-09-08T08:06:03.509Z,16.5
2017-09-08T08:07:04.909Z,16.6
2017-09-08T08:08:06.327Z,16.6
2017-09-08T08:09:07.809Z,16.5
2017-09-08T08:10:09.208Z,16.6
2017-09-08T08:11:10.646Z,16.6
2017-09-08T08:12:12.046Z,16.6
2017-09-08T08:13:13.447Z,16.6
2017-09-08T08:14:14.868Z,16.6
2017-09-08T08:15:16.272Z,16.6
2017-09-08T08:16:17.676Z,16.6
2017-09-08T08:17:19.190Z,16.5
2017-09-08T08:18:20.592Z,16.5
2017-09-08T08:19:21.993Z,16.5
2017-09-08T08:20:23.410Z,16.5
2017-09-08T08:21:24.816Z,16.6
2017-09-08T08:22:26.287Z,16.5
2017-09-08T08:23:27.724Z,16.5
2017-09-08T08:24:29.168Z,16.5
2017-09-08T08:25:30.567Z,16.5
2017-09-08T08:26:32.065Z,16.6
2017-09-08T08:27:33.459Z,16.5
2017-09-08T08:28:34.952Z,16.5
2017-09-08T08:29:36.353Z,16.5
2017-09-08T08:30:37.751Z,16.5
2017-09-08T08:31:39.250Z,16.6
2017-09-08T08:32:40.651Z,16.5
2017-09-08T08:33:42.080Z,16.6
2017-09-08T08:34:43.570Z,16.5
2017-09-08T08:35:44.972Z,16.5
2017-09-08T08:36:46.374Z,16.6
2017-09-08T08:37:47.789Z,16.5
2017-09-08T08:38:49.240Z,16.6
2017-09-08T08:39:50.612Z,16.6
2017-09-08T08:40:52.111Z,16.5
2017-09-08T08:41:53.515Z,16.6
2017-09-08T08:42:54.917Z,16.7
2017-09-08T08:43:56.434Z,16.6
2017-09-08T08:44:57.833Z,16.7
2017-09-08T08:45:59.236Z,16.6
2017-09-08T08:47:00.649Z,16.6
2017-09-08T08:48:02.052Z,16.6
2017-09-08T08:49:03.914Z,16.6
2017-09-08T08:50:05.319Z,16.6
2017-09-08T08:51:06.747Z,16.6
2017-09-08T08:52:08.159Z,16.6
2017-09-08T08:53:09.562Z,16.6
2017-09-08T08:54:10.961Z,16.6
2017-09-08T08:55:12.377Z,16.5
2017-09-08T08:56:13.777Z,16.6
2017-09-08T08:57:15.257Z,16.5
2017-09-08T08:58:16.668Z,16.6
2017-09-08T08:59:18.138Z,16.6
2017-09-08T09:00:19.539Z,16.5
2017-09-08T09:01:20.942Z,16.5
2017-09-08T09:02:22.363Z,16.6
2017-09-08T09:03:23.755Z,16.5
2017-09-08T09:04:25.158Z,16.5
2017-09-08T09:05:26.575Z,16.5
2017-09-08T09:06:27.975Z,16.5
2017-09-08T09:07:29.378Z,16.6
2017-09-08T09:08:30.795Z,16.5
2017-09-08T09:09:32.195Z,16.6
2017-09-08T09:10:33.598Z,16.5
2017-09-08T09:11:35.008Z,16.5
2017-09-08T09:12:36.418Z,16.6
2017-09-08T09:13:37.836Z,16.5
2017-09-08T09:14:39.334Z,16.5
2017-09-08T09:15:40.793Z,16.5
2017-09-08T09:16:42.186Z,16.5
2017-09-08T09:17:43.654Z,16.6
2017-09-08T09:18:45.055Z,16.6
2017-09-08T09:19:46.465Z,16.5
2017-09-08T09:20:47.976Z,16.5
2017-09-08T09:21:49.382Z,16.5
2017-09-08T09:22:50.783Z,16.5
2017-09-08T09:23:52.179Z,16.5
2017-09-08T09:24:53.574Z,16.5
2017-09-08T09:25:54.975Z,16.6
2017-09-08T09:26:56.412Z,16.5
2017-09-08T09:27:57.809Z,16.6
2017-09-08T09:28:59.293Z,16.5
2017-09-08T09:30:00.693Z,16.6
2017-09-08T09:31:02.176Z,16.5
2017-09-08T09:32:03.579Z,16.6
2017-09-08T09:33:05.437Z,16.5
2017-09-08T09:34:06.851Z,16.6
2017-09-08T09:35:08.358Z,16.6
2017-09-08T09:36:09.758Z,16.6
2017-09-08T09:37:11.166Z,16.6
2017-09-08T09:38:12.667Z,16.6
2017-09-08T09:39:14.068Z,16.7
2017-09-08T09:40:15.475Z,16.7
2017-09-08T09:41:16.988Z,16.7
2017-09-08T09:42:18.388Z,16.7
2017-09-08T09:43:19.788Z,16.7
2017-09-08T09:44:21.206Z,16.7
2017-09-08T09:45:22.647Z,16.6
2017-09-08T09:46:24.047Z,16.7
2017-09-08T09:47:25.528Z,16.7
2017-09-08T09:48:26.938Z,16.6
2017-09-08T09:49:28.409Z,16.6
2017-09-08T09:50:29.804Z,16.6
2017-09-08T09:51:31.289Z,16.7
2017-09-08T09:52:32.692Z,16.5
2017-09-08T09:53:34.169Z,16.6
2017-09-08T09:54:35.574Z,16.7
2017-09-08T09:55:37.051Z,16.6
2017-09-08T09:56:38.451Z,16.6
2017-09-08T09:57:40.313Z,16.7
2017-09-08T09:58:41.712Z,16.7
2017-09-08T09:59:43.220Z,16.6
2017-09-08T10:00:44.620Z,16.5
2017-09-08T10:01:46.022Z,16.6
2017-09-08T10:02:47.439Z,16.6
2017-09-08T10:03:48.851Z,16.6
2017-09-08T10:04:50.255Z,16.6
2017-09-08T10:05:51.759Z,16.6
2017-09-08T10:06:53.166Z,16.6
2017-09-08T10:07:54.570Z,16.6
2017-09-08T10:08:56.080Z,16.6
2017-09-08T10:09:57.484Z,16.6
2017-09-08T10:10:58.899Z,16.7
2017-09-08T10:12:00.403Z,16.7
2017-09-08T10:13:01.806Z,16.7
2017-09-08T10:14:03.205Z,16.8
2017-09-08T10:15:04.725Z,16.8
2017-09-08T10:16:06.129Z,16.8
2017-09-08T10:17:07.531Z,16.8
2017-09-08T10:18:09.049Z,16.8
2017-09-08T10:19:10.462Z,16.8
2017-09-08T10:20:11.866Z,16.7
2017-09-08T10:21:13.369Z,16.9
2017-09-08T10:22:15.153Z,16.9
2017-09-08T10:23:16.557Z,16.8
2017-09-08T10:24:17.994Z,16.9
2017-09-08T10:25:19.400Z,16.9
2017-09-08T10:26:20.797Z,16.8
2017-09-08T10:27:22.211Z,16.9
2017-09-08T10:28:23.613Z,16.9
2017-09-08T10:29:25.092Z,16.8
2017-09-08T10:30:26.494Z,16.9
2017-09-08T10:31:27.897Z,16.9
2017-09-08T10:32:29.317Z,16.8
2017-09-08T10:33:30.714Z,16.9
2017-09-08T10:34:32.116Z,16.9
2017-09-08T10:35:33.538Z,16.8
2017-09-08T10:36:34.938Z,16.9
2017-09-08T10:37:36.339Z,16.8
2017-09-08T10:38:38.120Z,16.9
2017-09-08T10:39:39.599Z,16.8
2017-09-08T10:40:40.997Z,16.8
2017-09-08T10:41:42.400Z,16.9
2017-09-08T10:42:43.845Z,16.8
2017-09-08T10:43:45.245Z,16.7
2017-09-08T10:44:46.647Z,16.7
2017-09-08T10:45:48.137Z,16.8
2017-09-08T10:46:49.567Z,16.7
2017-09-08T10:47:50.962Z,16.7
2017-09-08T10:48:52.838Z,16.6
2017-09-08T10:49:54.238Z,16.7
2017-09-08T10:50:55.640Z,16.7
2017-09-08T10:51:57.089Z,16.6
2017-09-08T10:52:58.491Z,16.7
2017-09-08T10:53:59.969Z,16.6
2017-09-08T10:55:01.370Z,16.7
2017-09-08T10:56:02.851Z,16.6
2017-09-08T10:57:04.246Z,16.6
2017-09-08T10:58:05.728Z,16.7
2017-09-08T10:59:07.131Z,16.6
2017-09-08T11:00:08.609Z,16.7
2017-09-08T11:01:10.430Z,16.7
2017-09-08T11:02:11.924Z,16.7
2017-09-08T11:03:13.303Z,16.7
2017-09-08T11:04:14.782Z,16.6
2017-09-08T11:05:16.184Z,16.6
2017-09-08T11:06:17.660Z,16.6
2017-09-08T11:07:19.060Z,16.7
2017-09-08T11:08:20.543Z,16.7
2017-09-08T11:09:21.944Z,16.5
2017-09-08T11:10:23.811Z,16.7
2017-09-08T11:11:25.233Z,16.7
2017-09-08T11:12:26.714Z,16.6
2017-09-08T11:13:28.119Z,16.6
2017-09-08T11:14:29.599Z,16.7
2017-09-08T11:15:31.336Z,16.7
2017-09-08T11:16:32.785Z,16.6
2017-09-08T11:17:34.180Z,16.6
2017-09-08T11:18:35.585Z,16.6
2017-09-08T11:19:37.000Z,16.6
2017-09-08T11:20:38.401Z,16.6
2017-09-08T11:21:39.806Z,16.6
2017-09-08T11:22:41.218Z,16.6
2017-09-08T11:23:42.617Z,16.6
2017-09-08T11:24:44.434Z,16.6
2017-09-08T11:25:45.949Z,16.5
2017-09-08T11:26:47.349Z,16.5
2017-09-08T11:27:48.760Z,16.6
2017-09-08T11:28:50.168Z,16.5
2017-09-08T11:29:51.566Z,16.5
2017-09-08T11:30:53.344Z,16.5
2017-09-08T11:31:54.797Z,16.5
2017-09-08T11:32:56.196Z,16.5
2017-09-08T11:33:57.597Z,16.4
2017-09-08T11:34:59.010Z,16.4
2017-09-08T11:36:00.420Z,16.4
2017-09-08T11:37:01.815Z,16.4
2017-09-08T11:38:03.234Z,16.4
2017-09-08T11:39:04.635Z,16.4
2017-09-08T11:40:06.034Z,16.4
2017-09-08T11:41:07.452Z,16.4
2017-09-08T11:42:08.851Z,16.4
2017-09-08T11:43:10.250Z,16.4
2017-09-08T11:44:11.670Z,16.4
2017-09-08T11:45:13.075Z,16.4
2017-09-08T11:46:14.475Z,16.4
2017-09-08T11:47:15.890Z,16.4
2017-09-08T11:48:17.287Z,16.3
2017-09-08T11:49:18.691Z,16.5
2017-09-08T11:50:20.108Z,16.3
2017-09-08T11:51:21.507Z,16.4
2017-09-08T11:52:23.287Z,16.4
2017-09-08T11:53:24.736Z,16.3
2017-09-08T11:54:26.138Z,16.4
2017-09-08T11:55:27.543Z,16.3
2017-09-08T11:56:28.954Z,16.4
2017-09-08T11:57:30.359Z,16.4
2017-09-08T11:58:32.151Z,16.4
2017-09-08T11:59:33.588Z,16.4
2017-09-08T12:00:34.985Z,16.5
2017-09-08T12:01:36.462Z,16.4
2017-09-08T12:02:37.864Z,16.4
2017-09-08T12:03:39.266Z,16.4
2017-09-08T12:04:40.683Z,16.5
2017-09-08T12:05:42.084Z,16.5
2017-09-08T12:06:43.484Z,16.5
2017-09-08T12:07:44.906Z,16.4
2017-09-08T12:08:46.304Z,16.4
2017-09-08T12:09:47.784Z,16.5
2017-09-08T12:10:49.186Z,16.4
2017-09-08T12:11:50.666Z,16.4
2017-09-08T12:12:52.065Z,16.4
2017-09-08T12:13:53.464Z,16.5
2017-09-08T12:14:54.887Z,16.4
2017-09-08T12:15:56.285Z,16.5
2017-09-08T12:16:57.688Z,16.5
2017-09-08T12:17:59.204Z,16.5
2017-09-08T12:19:00.607Z,16.5
2017-09-08T12:20:02.006Z,16.5
2017-09-08T12:21:03.423Z,16.5
2017-09-08T12:22:04.826Z,16.6
2017-09-08T12:23:06.229Z,16.6
2017-09-08T12:24:07.742Z,16.6
2017-09-08T12:25:09.147Z,16.6
2017-09-08T12:26:10.549Z,16.6
2017-09-08T12:27:12.066Z,16.6
2017-09-08T12:28:13.475Z,16.6
2017-09-08T12:29:14.873Z,16.6
2017-09-08T12:30:16.386Z,16.6
2017-09-08T12:31:17.790Z,16.6
2017-09-08T12:32:19.193Z,16.6
2017-09-08T12:33:20.706Z,16.7
2017-09-08T12:34:22.107Z,16.7
2017-09-08T12:35:23.513Z,16.6
2017-09-08T12:36:24.916Z,16.7
2017-09-08T12:37:26.331Z,16.7
2017-09-08T12:38:27.732Z,16.7
2017-09-08T12:39:29.143Z,16.7
2017-09-08T12:40:30.545Z,16.7
2017-09-08T12:41:31.954Z,16.7
2017-09-08T12:42:33.361Z,16.8
2017-09-08T12:43:34.769Z,16.8
2017-09-08T12:44:36.167Z,16.8
2017-09-08T12:45:37.573Z,16.8
2017-09-08T12:46:38.973Z,16.8
2017-09-08T12:47:40.376Z,16.8
2017-09-08T12:48:41.777Z,16.7
2017-09-08T12:49:43.175Z,16.7
2017-09-08T12:50:44.584Z,16.7
2017-09-08T12:51:45.985Z,16.8
2017-09-08T12:52:47.391Z,16.7
2017-09-08T12:53:48.802Z,16.7
2017-09-08T12:54:50.208Z,16.7
2017-09-08T12:55:51.611Z,16.7
2017-09-08T12:56:53.041Z,16.6
2017-09-08T12:57:54.458Z,16.6
2017-09-08T12:58:55.848Z,16.6
2017-09-08T12:59:57.250Z,16.6
2017-09-08T13:00:58.654Z,16.6
2017-09-08T13:02:00.058Z,16.6
2017-09-08T13:03:01.456Z,16.6
2017-09-08T13:04:02.898Z,16.6
2017-09-08T13:05:04.299Z,16.6
2017-09-08T13:06:05.695Z,16.6
2017-09-08T13:07:07.267Z,16.6
2017-09-08T13:08:08.670Z,16.6
2017-09-08T13:09:10.078Z,16.6
2017-09-08T13:10:11.536Z,16.6
2017-09-08T13:11:12.933Z,16.6
2017-09-08T13:12:14.335Z,16.7
2017-09-08T13:13:15.858Z,16.6
2017-09-08T13:14:17.258Z,16.6
2017-09-08T13:15:18.658Z,16.6
2017-09-08T13:16:20.179Z,16.6
2017-09-08T13:17:21.592Z,16.6
2017-09-08T13:18:22.996Z,16.6
2017-09-08T13:19:24.500Z,16.7
2017-09-08T13:20:25.899Z,16.6
2017-09-08T13:21:27.379Z,16.6
2017-09-08T13:22:28.781Z,16.6
2017-09-08T13:23:30.262Z,16.6
2017-09-08T13:24:31.660Z,16.6
2017-09-08T13:25:33.140Z,16.6
2017-09-08T13:26:34.540Z,16.6
2017-09-08T13:27:36.020Z,16.6
2017-09-08T13:28:37.420Z,16.6
2017-09-08T13:29:38.896Z,16.7
2017-09-08T13:30:40.302Z,16.6
2017-09-08T13:31:41.782Z,16.6
2017-09-08T13:32:43.181Z,16.6
2017-09-08T13:33:44.662Z,16.6
2017-09-08T13:34:46.063Z,16.7
2017-09-08T13:35:47.464Z,16.7
2017-09-08T13:36:48.880Z,16.6
2017-09-08T13:37:50.281Z,16.7
2017-09-08T13:38:51.685Z,16.6
2017-09-08T13:39:53.200Z,16.6
2017-09-08T13:40:54.600Z,16.6
2017-09-08T13:41:56.027Z,16.6
2017-09-08T13:42:57.436Z,16.6
2017-09-08T13:43:58.841Z,16.5
2017-09-08T13:45:00.242Z,16.6
2017-09-08T13:46:01.764Z,16.6
2017-09-08T13:47:03.162Z,16.5
2017-09-08T13:48:04.571Z,16.6
2017-09-08T13:49:05.966Z,16.6
2017-09-08T13:50:07.396Z,16.5
2017-09-08T13:51:08.803Z,16.6
2017-09-08T13:52:10.283Z,16.5
2017-09-08T13:53:11.680Z,16.6
2017-09-08T13:54:13.157Z,16.6
2017-09-08T13:55:14.560Z,16.6
2017-09-08T13:56:15.958Z,16.5
2017-09-08T13:57:17.414Z,16.5
2017-09-08T13:58:18.832Z,16.5
2017-09-08T13:59:20.231Z,16.5
2017-09-08T14:00:21.702Z,16.5
2017-09-08T14:01:23.102Z,16.6
2017-09-08T14:02:24.499Z,16.5
2017-09-08T14:03:25.915Z,16.5
2017-09-08T14:04:27.322Z,16.5
2017-09-08T14:05:28.727Z,16.6
2017-09-08T14:06:30.140Z,16.6
2017-09-08T14:07:31.558Z,16.5
2017-09-08T14:08:33.019Z,16.5
2017-09-08T14:09:34.419Z,16.6
2017-09-08T14:10:35.821Z,16.6
2017-09-08T14:11:37.238Z,16.6
2017-09-08T14:12:38.651Z,16.6
2017-09-08T14:13:40.054Z,16.6
2017-09-08T14:14:41.558Z,16.6
2017-09-08T14:15:42.958Z,16.6
2017-09-08T14:16:44.439Z,16.6
2017-09-08T14:17:45.840Z,16.6
2017-09-08T14:18:47.317Z,16.6
2017-09-08T14:19:48.730Z,16.6
2017-09-08T14:20:50.134Z,16.6
2017-09-08T14:21:51.641Z,16.6
2017-09-08T14:22:53.041Z,16.6
2017-09-08T14:23:54.442Z,16.6
2017-09-08T14:24:55.859Z,16.6
2017-09-08T14:25:57.260Z,16.6
2017-09-08T14:26:58.747Z,16.6
2017-09-08T14:28:00.177Z,16.6
2017-09-08T14:29:01.620Z,16.6
2017-09-08T14:30:03.019Z,16.6
2017-09-08T14:31:04.500Z,16.6
2017-09-08T14:32:05.905Z,16.6
2017-09-08T14:33:07.381Z,16.6
2017-09-08T14:34:08.790Z,16.6
2017-09-08T14:35:10.197Z,16.6
2017-09-08T14:36:11.702Z,16.7
2017-09-08T14:37:13.104Z,16.6
2017-09-08T14:38:14.517Z,16.6
2017-09-08T14:39:16.025Z,16.7
2017-09-08T14:40:17.426Z,16.6
2017-09-08T14:41:18.943Z,16.6
2017-09-08T14:42:20.447Z,16.6
2017-09-08T14:43:21.847Z,16.6
2017-09-08T14:44:23.247Z,16.5
2017-09-08T14:45:24.666Z,16.5
2017-09-08T14:46:26.066Z,16.6
2017-09-08T14:47:27.546Z,16.5
2017-09-08T14:48:28.947Z,16.6
2017-09-08T14:49:30.427Z,16.5
2017-09-08T14:50:31.826Z,16.5
2017-09-08T14:51:33.228Z,16.5
2017-09-08T14:52:34.645Z,16.5
2017-09-08T14:53:36.048Z,16.5
2017-09-08T14:54:37.449Z,16.5
2017-09-08T14:55:38.943Z,16.5
2017-09-08T14:56:40.319Z,16.5
2017-09-08T14:57:41.746Z,16.5
2017-09-08T14:58:43.142Z,16.6
2017-09-08T14:59:44.627Z,16.4
2017-09-08T15:00:46.027Z,16.5
2017-09-08T15:01:47.429Z,16.5
2017-09-08T15:02:48.845Z,16.4
2017-09-08T15:03:50.245Z,16.5
2017-09-08T15:04:51.646Z,16.5
2017-09-08T15:05:53.064Z,16.4
2017-09-08T15:06:54.463Z,16.4
2017-09-08T15:07:55.866Z,16.5
2017-09-08T15:08:57.281Z,16.4
2017-09-08T15:09:58.711Z,16.4
2017-09-08T15:11:00.105Z,16.5
2017-09-08T15:12:01.603Z,16.4
2017-09-08T15:13:03.004Z,16.4
2017-09-08T15:14:04.483Z,16.4
2017-09-08T15:15:06.275Z,16.4
2017-09-08T15:16:07.675Z,16.3
2017-09-08T15:17:09.086Z,16.3
2017-09-08T15:18:10.490Z,16.4
2017-09-08T15:19:11.888Z,16.3
2017-09-08T15:20:13.313Z,16.3
2017-09-08T15:21:14.713Z,16.3
2017-09-08T15:22:16.117Z,16.3
2017-09-08T15:23:17.523Z,16.3
2017-09-08T15:24:18.955Z,16.3
2017-09-08T15:25:20.354Z,16.3
2017-09-08T15:26:21.757Z,16.4
2017-09-08T15:27:23.162Z,16.4
2017-09-08T15:28:24.563Z,16.3
2017-09-08T15:29:25.965Z,16.3
2017-09-08T15:30:27.372Z,16.3
2017-09-08T15:31:29.152Z,16.3
2017-09-08T15:32:30.561Z,16.3
2017-09-08T15:33:31.962Z,16.2
2017-09-08T15:34:33.368Z,16.3
2017-09-08T15:35:34.774Z,16.2
2017-09-08T15:36:36.178Z,16.2
2017-09-08T15:37:37.579Z,16.3
2017-09-08T15:38:39.016Z,16.2
2017-09-08T15:39:40.419Z,16.2
2017-09-08T15:40:41.828Z,16.2
2017-09-08T15:41:43.226Z,16.2
2017-09-08T15:42:44.640Z,16.2
2017-09-08T15:43:46.041Z,16.3
2017-09-08T15:44:47.477Z,16.2
2017-09-08T15:45:48.884Z,16.2
2017-09-08T15:46:50.297Z,16.3
2017-09-08T15:47:51.705Z,16.2
2017-09-08T15:48:53.103Z,16.2
2017-09-08T15:49:54.506Z,16.2
2017-09-08T15:50:55.921Z,16.3
2017-09-08T15:51:57.325Z,16.2
2017-09-08T15:52:58.726Z,16.2
2017-09-08T15:54:00.181Z,16.2
2017-09-08T15:55:01.591Z,16.2
2017-09-08T15:56:02.990Z,16.2
2017-09-08T15:57:04.466Z,16.3
2017-09-08T15:58:05.866Z,16.2
2017-09-08T15:59:07.347Z,16.2
2017-09-08T16:00:08.756Z,16.2
2017-09-08T16:01:10.148Z,16.2
2017-09-08T16:02:11.554Z,16.2
2017-09-08T16:03:12.958Z,16.2
2017-09-08T16:04:14.359Z,16.3
2017-09-08T16:05:15.758Z,16.2
2017-09-08T16:06:17.227Z,16.2
2017-09-08T16:07:18.626Z,16.2
2017-09-08T16:08:20.174Z,16.3
2017-09-08T16:09:21.577Z,16.2
2017-09-08T16:10:23.092Z,16.2
2017-09-08T16:11:24.510Z,16.2
2017-09-08T16:12:25.910Z,16.2
2017-09-08T16:13:27.411Z,16.3
2017-09-08T16:14:28.810Z,16.2
2017-09-08T16:15:30.219Z,16.3
2017-09-08T16:16:31.733Z,16.2